sensor_id;sensor_type;location;lat;lon;timestamp;P1;durP1;ratioP1;P2;durP2;ratioP2
8247;SDS011;4164;49.844;8.830;2023-04-24T00:00:45;1.40;;;1.30;;
8247;SDS011;4164;49.844;8.830;2023-04-24T00:03:11;1.40;;;1.30;;
8247;SDS011;4164;49.844;8.830;2023-04-24T00:05:37;2.43;;;1.40;;
8247;SDS011;4164;49.844;8.830;2023-04-24T00:08:05;2.60;;;1.23;;
8247;SDS011;4164;49.844;8.830;2023-04-24T00:10:31;2.93;;;1.50;;
8247;SDS011;4164;49.844;8.830;2023-04-24T00:12:56;1.33;;;1.10;;
8247;SDS011;4164;49.844;8.830;2023-04-24T00:15:22;2.70;;;1.30;;
8247;SDS011;4164;49.844;8.830;2023-04-24T00:17:48;1.83;;;1.30;;
8247;SDS011;4164;49.844;8.830;2023-04-24T00:20:13;1.77;;;1.33;;
8247;SDS011;4164;49.844;8.830;2023-04-24T00:22:39;1.27;;;1.03;;
8247;SDS011;4164;49.844;8.830;2023-04-24T00:25:05;2.30;;;1.30;;
8247;SDS011;4164;49.844;8.830;2023-04-24T00:27:31;2.00;;;1.20;;
8247;SDS011;4164;49.844;8.830;2023-04-24T00:29:57;5.20;;;1.17;;
8247;SDS011;4164;49.844;8.830;2023-04-24T00:32:22;3.13;;;1.33;;
8247;SDS011;4164;49.844;8.830;2023-04-24T00:34:48;2.33;;;1.30;;
8247;SDS011;4164;49.844;8.830;2023-04-24T00:37:13;3.20;;;1.40;;
8247;SDS011;4164;49.844;8.830;2023-04-24T00:39:39;1.80;;;1.40;;
8247;SDS011;4164;49.844;8.830;2023-04-24T00:42:04;2.33;;;1.50;;
8247;SDS011;4164;49.844;8.830;2023-04-24T00:44:31;2.73;;;1.93;;
8247;SDS011;4164;49.844;8.830;2023-04-24T00:46:59;3.20;;;1.33;;
8247;SDS011;4164;49.844;8.830;2023-04-24T00:49:25;3.13;;;1.30;;
8247;SDS011;4164;49.844;8.830;2023-04-24T00:51:51;5.57;;;1.43;;
8247;SDS011;4164;49.844;8.830;2023-04-24T00:54:17;2.60;;;1.20;;
8247;SDS011;4164;49.844;8.830;2023-04-24T00:56:43;1.70;;;1.40;;
8247;SDS011;4164;49.844;8.830;2023-04-24T00:59:10;1.40;;;1.13;;
8247;SDS011;4164;49.844;8.830;2023-04-24T01:01:37;1.50;;;1.30;;
8247;SDS011;4164;49.844;8.830;2023-04-24T01:04:07;4.10;;;1.67;;
8247;SDS011;4164;49.844;8.830;2023-04-24T01:06:35;3.27;;;1.97;;
8247;SDS011;4164;49.844;8.830;2023-04-24T01:09:03;1.60;;;1.17;;
8247;SDS011;4164;49.844;8.830;2023-04-24T01:11:29;1.13;;;1.03;;
8247;SDS011;4164;49.844;8.830;2023-04-24T01:13:55;1.53;;;1.20;;
8247;SDS011;4164;49.844;8.830;2023-04-24T01:16:21;3.63;;;1.20;;
8247;SDS011;4164;49.844;8.830;2023-04-24T01:18:47;2.13;;;1.00;;
8247;SDS011;4164;49.844;8.830;2023-04-24T01:21:14;2.10;;;0.90;;
8247;SDS011;4164;49.844;8.830;2023-04-24T01:23:41;1.10;;;1.00;;
8247;SDS011;4164;49.844;8.830;2023-04-24T01:26:10;6.70;;;1.40;;
8247;SDS011;4164;49.844;8.830;2023-04-24T01:28:37;1.30;;;1.20;;
8247;SDS011;4164;49.844;8.830;2023-04-24T01:31:02;3.57;;;1.30;;
8247;SDS011;4164;49.844;8.830;2023-04-24T01:33:28;2.63;;;1.30;;
8247;SDS011;4164;49.844;8.830;2023-04-24T01:35:54;3.13;;;0.90;;
8247;SDS011;4164;49.844;8.830;2023-04-24T01:38:19;3.83;;;1.30;;
8247;SDS011;4164;49.844;8.830;2023-04-24T01:40:45;1.87;;;1.10;;
8247;SDS011;4164;49.844;8.830;2023-04-24T01:43:12;1.77;;;1.60;;
8247;SDS011;4164;49.844;8.830;2023-04-24T01:45:38;3.57;;;1.40;;
8247;SDS011;4164;49.844;8.830;2023-04-24T01:48:04;3.47;;;1.47;;
8247;SDS011;4164;49.844;8.830;2023-04-24T01:50:30;1.97;;;1.03;;
8247;SDS011;4164;49.844;8.830;2023-04-24T01:52:55;1.93;;;1.17;;
8247;SDS011;4164;49.844;8.830;2023-04-24T01:55:21;1.20;;;1.00;;
8247;SDS011;4164;49.844;8.830;2023-04-24T01:57:47;3.40;;;1.13;;
8247;SDS011;4164;49.844;8.830;2023-04-24T02:00:12;2.13;;;1.00;;
8247;SDS011;4164;49.844;8.830;2023-04-24T02:02:39;1.97;;;1.13;;
8247;SDS011;4164;49.844;8.830;2023-04-24T02:05:06;1.57;;;1.20;;
8247;SDS011;4164;49.844;8.830;2023-04-24T02:07:32;2.90;;;1.10;;
8247;SDS011;4164;49.844;8.830;2023-04-24T02:09:58;1.97;;;1.10;;
8247;SDS011;4164;49.844;8.830;2023-04-24T02:12:23;1.47;;;0.97;;
8247;SDS011;4164;49.844;8.830;2023-04-24T02:14:49;2.30;;;1.23;;
8247;SDS011;4164;49.844;8.830;2023-04-24T02:17:15;2.40;;;1.33;;
8247;SDS011;4164;49.844;8.830;2023-04-24T02:19:41;1.60;;;1.20;;
8247;SDS011;4164;49.844;8.830;2023-04-24T02:22:06;2.50;;;1.30;;
8247;SDS011;4164;49.844;8.830;2023-04-24T02:24:32;4.77;;;1.37;;
8247;SDS011;4164;49.844;8.830;2023-04-24T02:26:58;1.10;;;1.00;;
8247;SDS011;4164;49.844;8.830;2023-04-24T02:29:23;4.17;;;1.30;;
8247;SDS011;4164;49.844;8.830;2023-04-24T02:31:49;4.80;;;1.40;;
8247;SDS011;4164;49.844;8.830;2023-04-24T02:34:14;1.83;;;1.30;;
8247;SDS011;4164;49.844;8.830;2023-04-24T02:36:41;2.30;;;0.93;;
8247;SDS011;4164;49.844;8.830;2023-04-24T02:39:06;1.43;;;1.20;;
8247;SDS011;4164;49.844;8.830;2023-04-24T02:41:32;3.47;;;1.40;;
8247;SDS011;4164;49.844;8.830;2023-04-24T02:43:58;2.17;;;1.13;;
8247;SDS011;4164;49.844;8.830;2023-04-24T02:46:24;5.33;;;1.40;;
8247;SDS011;4164;49.844;8.830;2023-04-24T02:48:49;1.63;;;1.20;;
8247;SDS011;4164;49.844;8.830;2023-04-24T02:51:15;5.20;;;1.40;;
8247;SDS011;4164;49.844;8.830;2023-04-24T02:53:40;4.00;;;1.20;;
8247;SDS011;4164;49.844;8.830;2023-04-24T02:56:06;2.43;;;1.40;;
8247;SDS011;4164;49.844;8.830;2023-04-24T02:58:32;4.30;;;1.57;;
8247;SDS011;4164;49.844;8.830;2023-04-24T03:00:57;4.07;;;1.53;;
8247;SDS011;4164;49.844;8.830;2023-04-24T03:03:23;2.30;;;1.43;;
8247;SDS011;4164;49.844;8.830;2023-04-24T03:05:49;1.17;;;1.07;;
8247;SDS011;4164;49.844;8.830;2023-04-24T03:08:15;2.80;;;1.40;;
8247;SDS011;4164;49.844;8.830;2023-04-24T03:10:40;4.07;;;1.40;;
8247;SDS011;4164;49.844;8.830;2023-04-24T03:13:06;1.50;;;1.10;;
8247;SDS011;4164;49.844;8.830;2023-04-24T03:15:31;1.40;;;1.20;;
8247;SDS011;4164;49.844;8.830;2023-04-24T03:17:57;2.00;;;1.33;;
8247;SDS011;4164;49.844;8.830;2023-04-24T03:20:23;1.50;;;1.40;;
8247;SDS011;4164;49.844;8.830;2023-04-24T03:22:49;2.37;;;1.70;;
8247;SDS011;4164;49.844;8.830;2023-04-24T03:25:14;2.03;;;1.63;;
8247;SDS011;4164;49.844;8.830;2023-04-24T03:27:40;2.60;;;1.40;;
8247;SDS011;4164;49.844;8.830;2023-04-24T03:30:06;1.43;;;1.30;;
8247;SDS011;4164;49.844;8.830;2023-04-24T03:32:32;1.20;;;1.10;;
8247;SDS011;4164;49.844;8.830;2023-04-24T03:34:58;3.30;;;1.57;;
8247;SDS011;4164;49.844;8.830;2023-04-24T03:37:24;2.17;;;1.50;;
8247;SDS011;4164;49.844;8.830;2023-04-24T03:39:49;3.17;;;1.83;;
8247;SDS011;4164;49.844;8.830;2023-04-24T03:42:15;2.60;;;1.50;;
8247;SDS011;4164;49.844;8.830;2023-04-24T03:44:40;2.70;;;1.57;;
8247;SDS011;4164;49.844;8.830;2023-04-24T03:47:06;3.10;;;1.83;;
8247;SDS011;4164;49.844;8.830;2023-04-24T03:49:31;3.27;;;2.00;;
8247;SDS011;4164;49.844;8.830;2023-04-24T03:51:57;3.77;;;1.87;;
8247;SDS011;4164;49.844;8.830;2023-04-24T03:54:23;3.43;;;2.30;;
8247;SDS011;4164;49.844;8.830;2023-04-24T03:56:48;3.37;;;2.43;;
8247;SDS011;4164;49.844;8.830;2023-04-24T03:59:14;2.43;;;1.93;;
8247;SDS011;4164;49.844;8.830;2023-04-24T04:01:39;1.87;;;1.77;;
8247;SDS011;4164;49.844;8.830;2023-04-24T04:04:05;13.70;;;6.30;;
8247;SDS011;4164;49.844;8.830;2023-04-24T04:06:31;7.23;;;3.33;;
8247;SDS011;4164;49.844;8.830;2023-04-24T04:08:57;2.43;;;1.90;;
8247;SDS011;4164;49.844;8.830;2023-04-24T04:11:23;3.77;;;2.13;;
8247;SDS011;4164;49.844;8.830;2023-04-24T04:13:49;3.50;;;2.40;;
8247;SDS011;4164;49.844;8.830;2023-04-24T04:16:15;2.47;;;2.27;;
8247;SDS011;4164;49.844;8.830;2023-04-24T04:18:43;4.80;;;2.30;;
8247;SDS011;4164;49.844;8.830;2023-04-24T04:21:09;2.87;;;2.10;;
8247;SDS011;4164;49.844;8.830;2023-04-24T04:23:35;3.33;;;2.50;;
8247;SDS011;4164;49.844;8.830;2023-04-24T04:26:01;2.40;;;2.17;;
8247;SDS011;4164;49.844;8.830;2023-04-24T04:28:28;2.37;;;2.03;;
8247;SDS011;4164;49.844;8.830;2023-04-24T04:30:55;3.93;;;2.20;;
8247;SDS011;4164;49.844;8.830;2023-04-24T04:33:22;2.83;;;2.47;;
8247;SDS011;4164;49.844;8.830;2023-04-24T04:35:49;2.83;;;2.50;;
8247;SDS011;4164;49.844;8.830;2023-04-24T04:38:15;2.60;;;2.40;;
8247;SDS011;4164;49.844;8.830;2023-04-24T04:40:41;2.67;;;2.43;;
8247;SDS011;4164;49.844;8.830;2023-04-24T04:43:07;3.30;;;2.70;;
8247;SDS011;4164;49.844;8.830;2023-04-24T04:45:33;3.17;;;2.60;;
8247;SDS011;4164;49.844;8.830;2023-04-24T04:47:59;3.57;;;2.50;;
8247;SDS011;4164;49.844;8.830;2023-04-24T04:50:27;6.63;;;2.50;;
8247;SDS011;4164;49.844;8.830;2023-04-24T04:52:52;2.40;;;2.20;;
8247;SDS011;4164;49.844;8.830;2023-04-24T04:55:18;2.83;;;2.57;;
8247;SDS011;4164;49.844;8.830;2023-04-24T04:57:45;3.20;;;2.73;;
8247;SDS011;4164;49.844;8.830;2023-04-24T05:00:11;3.23;;;2.60;;
8247;SDS011;4164;49.844;8.830;2023-04-24T05:02:37;5.07;;;3.07;;
8247;SDS011;4164;49.844;8.830;2023-04-24T05:05:03;4.13;;;2.97;;
8247;SDS011;4164;49.844;8.830;2023-04-24T05:07:30;3.83;;;2.60;;
8247;SDS011;4164;49.844;8.830;2023-04-24T05:09:56;3.17;;;2.63;;
8247;SDS011;4164;49.844;8.830;2023-04-24T05:12:21;5.37;;;2.87;;
8247;SDS011;4164;49.844;8.830;2023-04-24T05:14:47;3.07;;;2.77;;
8247;SDS011;4164;49.844;8.830;2023-04-24T05:17:12;4.20;;;2.60;;
8247;SDS011;4164;49.844;8.830;2023-04-24T05:19:38;3.87;;;2.90;;
8247;SDS011;4164;49.844;8.830;2023-04-24T05:22:04;4.00;;;2.77;;
8247;SDS011;4164;49.844;8.830;2023-04-24T05:24:31;3.00;;;2.70;;
8247;SDS011;4164;49.844;8.830;2023-04-24T05:27:00;4.17;;;2.83;;
8247;SDS011;4164;49.844;8.830;2023-04-24T05:29:27;4.20;;;3.37;;
8247;SDS011;4164;49.844;8.830;2023-04-24T05:31:53;2.90;;;2.67;;
8247;SDS011;4164;49.844;8.830;2023-04-24T05:34:18;3.47;;;3.17;;
8247;SDS011;4164;49.844;8.830;2023-04-24T05:36:44;3.83;;;3.00;;
8247;SDS011;4164;49.844;8.830;2023-04-24T05:39:09;3.73;;;3.00;;
8247;SDS011;4164;49.844;8.830;2023-04-24T05:41:35;3.20;;;2.90;;
8247;SDS011;4164;49.844;8.830;2023-04-24T05:44:00;3.40;;;3.10;;
8247;SDS011;4164;49.844;8.830;2023-04-24T05:46:26;3.40;;;3.00;;
8247;SDS011;4164;49.844;8.830;2023-04-24T05:48:51;3.37;;;3.03;;
8247;SDS011;4164;49.844;8.830;2023-04-24T05:51:17;3.40;;;3.03;;
8247;SDS011;4164;49.844;8.830;2023-04-24T05:53:42;3.90;;;3.03;;
8247;SDS011;4164;49.844;8.830;2023-04-24T05:56:08;4.03;;;2.93;;
8247;SDS011;4164;49.844;8.830;2023-04-24T05:58:34;4.30;;;3.00;;
8247;SDS011;4164;49.844;8.830;2023-04-24T06:00:59;4.53;;;2.80;;
8247;SDS011;4164;49.844;8.830;2023-04-24T06:03:26;3.83;;;2.87;;
8247;SDS011;4164;49.844;8.830;2023-04-24T06:05:52;3.87;;;2.60;;
8247;SDS011;4164;49.844;8.830;2023-04-24T06:08:18;3.40;;;2.67;;
8247;SDS011;4164;49.844;8.830;2023-04-24T06:10:43;4.03;;;3.03;;
8247;SDS011;4164;49.844;8.830;2023-04-24T06:13:09;5.43;;;3.00;;
8247;SDS011;4164;49.844;8.830;2023-04-24T06:15:35;4.47;;;3.40;;
8247;SDS011;4164;49.844;8.830;2023-04-24T06:18:00;7.10;;;3.47;;
8247;SDS011;4164;49.844;8.830;2023-04-24T06:20:26;3.43;;;3.10;;
8247;SDS011;4164;49.844;8.830;2023-04-24T06:22:51;3.60;;;3.20;;
8247;SDS011;4164;49.844;8.830;2023-04-24T06:25:17;4.07;;;3.47;;
8247;SDS011;4164;49.844;8.830;2023-04-24T06:27:44;4.83;;;3.43;;
8247;SDS011;4164;49.844;8.830;2023-04-24T06:30:09;4.43;;;3.50;;
8247;SDS011;4164;49.844;8.830;2023-04-24T06:32:35;9.97;;;3.30;;
8247;SDS011;4164;49.844;8.830;2023-04-24T06:35:01;4.83;;;3.20;;
8247;SDS011;4164;49.844;8.830;2023-04-24T06:37:27;3.73;;;3.43;;
8247;SDS011;4164;49.844;8.830;2023-04-24T06:39:52;3.83;;;3.50;;
8247;SDS011;4164;49.844;8.830;2023-04-24T06:42:18;5.47;;;3.93;;
8247;SDS011;4164;49.844;8.830;2023-04-24T06:44:45;4.53;;;3.47;;
8247;SDS011;4164;49.844;8.830;2023-04-24T06:47:11;4.53;;;3.70;;
8247;SDS011;4164;49.844;8.830;2023-04-24T06:49:38;5.00;;;4.37;;
8247;SDS011;4164;49.844;8.830;2023-04-24T06:52:04;6.37;;;4.70;;
8247;SDS011;4164;49.844;8.830;2023-04-24T06:54:30;7.50;;;4.87;;
8247;SDS011;4164;49.844;8.830;2023-04-24T06:56:57;6.67;;;4.93;;
8247;SDS011;4164;49.844;8.830;2023-04-24T06:59:23;5.70;;;5.10;;
8247;SDS011;4164;49.844;8.830;2023-04-24T07:01:49;5.00;;;4.50;;
8247;SDS011;4164;49.844;8.830;2023-04-24T07:04:16;8.37;;;4.90;;
8247;SDS011;4164;49.844;8.830;2023-04-24T07:06:42;5.27;;;4.70;;
8247;SDS011;4164;49.844;8.830;2023-04-24T07:09:08;6.50;;;4.87;;
8247;SDS011;4164;49.844;8.830;2023-04-24T07:11:34;7.40;;;4.97;;
8247;SDS011;4164;49.844;8.830;2023-04-24T07:14:00;8.17;;;4.60;;
8247;SDS011;4164;49.844;8.830;2023-04-24T07:16:25;5.63;;;4.07;;
8247;SDS011;4164;49.844;8.830;2023-04-24T07:18:52;6.87;;;4.30;;
8247;SDS011;4164;49.844;8.830;2023-04-24T07:21:17;8.07;;;4.17;;
8247;SDS011;4164;49.844;8.830;2023-04-24T07:23:43;8.03;;;5.33;;
8247;SDS011;4164;49.844;8.830;2023-04-24T07:26:08;10.60;;;4.83;;
8247;SDS011;4164;49.844;8.830;2023-04-24T07:28:34;5.63;;;4.20;;
8247;SDS011;4164;49.844;8.830;2023-04-24T07:31:00;7.10;;;4.20;;
8247;SDS011;4164;49.844;8.830;2023-04-24T07:33:26;7.47;;;3.80;;
8247;SDS011;4164;49.844;8.830;2023-04-24T07:35:51;9.63;;;4.13;;
8247;SDS011;4164;49.844;8.830;2023-04-24T07:38:17;8.03;;;4.03;;
8247;SDS011;4164;49.844;8.830;2023-04-24T07:40:46;4.37;;;3.60;;
8247;SDS011;4164;49.844;8.830;2023-04-24T07:43:12;6.70;;;4.00;;
8247;SDS011;4164;49.844;8.830;2023-04-24T07:45:37;6.93;;;3.73;;
8247;SDS011;4164;49.844;8.830;2023-04-24T07:48:04;5.67;;;4.23;;
8247;SDS011;4164;49.844;8.830;2023-04-24T07:50:32;7.00;;;3.80;;
8247;SDS011;4164;49.844;8.830;2023-04-24T07:52:59;4.93;;;3.57;;
8247;SDS011;4164;49.844;8.830;2023-04-24T07:55:25;4.30;;;3.10;;
8247;SDS011;4164;49.844;8.830;2023-04-24T07:57:51;7.03;;;3.60;;
8247;SDS011;4164;49.844;8.830;2023-04-24T08:00:16;4.73;;;3.77;;
8247;SDS011;4164;49.844;8.830;2023-04-24T08:02:42;5.13;;;3.83;;
8247;SDS011;4164;49.844;8.830;2023-04-24T08:05:08;3.70;;;2.77;;
8247;SDS011;4164;49.844;8.830;2023-04-24T08:07:33;6.17;;;4.03;;
8247;SDS011;4164;49.844;8.830;2023-04-24T08:10:00;6.03;;;3.30;;
8247;SDS011;4164;49.844;8.830;2023-04-24T08:12:27;4.07;;;3.10;;
8247;SDS011;4164;49.844;8.830;2023-04-24T08:14:53;3.43;;;3.13;;
8247;SDS011;4164;49.844;8.830;2023-04-24T08:17:19;7.23;;;3.43;;
8247;SDS011;4164;49.844;8.830;2023-04-24T08:19:44;4.90;;;3.03;;
8247;SDS011;4164;49.844;8.830;2023-04-24T08:22:13;3.97;;;3.30;;
8247;SDS011;4164;49.844;8.830;2023-04-24T08:24:41;3.37;;;2.80;;
8247;SDS011;4164;49.844;8.830;2023-04-24T08:27:07;5.37;;;3.30;;
8247;SDS011;4164;49.844;8.830;2023-04-24T08:29:33;3.30;;;3.00;;
8247;SDS011;4164;49.844;8.830;2023-04-24T08:31:59;3.70;;;3.10;;
8247;SDS011;4164;49.844;8.830;2023-04-24T08:34:24;4.90;;;2.97;;
8247;SDS011;4164;49.844;8.830;2023-04-24T08:36:50;7.97;;;2.83;;
8247;SDS011;4164;49.844;8.830;2023-04-24T08:39:16;5.63;;;2.27;;
8247;SDS011;4164;49.844;8.830;2023-04-24T08:41:43;4.37;;;2.50;;
8247;SDS011;4164;49.844;8.830;2023-04-24T08:44:10;2.67;;;2.40;;
8247;SDS011;4164;49.844;8.830;2023-04-24T08:46:37;3.40;;;2.43;;
8247;SDS011;4164;49.844;8.830;2023-04-24T08:49:05;2.90;;;2.33;;
8247;SDS011;4164;49.844;8.830;2023-04-24T08:51:31;5.80;;;2.50;;
8247;SDS011;4164;49.844;8.830;2023-04-24T08:53:56;3.53;;;2.70;;
8247;SDS011;4164;49.844;8.830;2023-04-24T08:56:25;3.53;;;2.30;;
8247;SDS011;4164;49.844;8.830;2023-04-24T08:58:53;2.90;;;2.27;;
8247;SDS011;4164;49.844;8.830;2023-04-24T09:01:19;3.20;;;2.33;;
8247;SDS011;4164;49.844;8.830;2023-04-24T09:03:46;3.90;;;2.40;;
8247;SDS011;4164;49.844;8.830;2023-04-24T09:06:14;3.10;;;2.70;;
8247;SDS011;4164;49.844;8.830;2023-04-24T09:08:42;3.00;;;2.53;;
8247;SDS011;4164;49.844;8.830;2023-04-24T09:11:10;3.37;;;3.07;;
8247;SDS011;4164;49.844;8.830;2023-04-24T09:13:36;7.30;;;3.03;;
8247;SDS011;4164;49.844;8.830;2023-04-24T09:16:02;3.83;;;2.57;;
8247;SDS011;4164;49.844;8.830;2023-04-24T09:18:28;3.33;;;3.00;;
8247;SDS011;4164;49.844;8.830;2023-04-24T09:21:03;2.67;;;2.37;;
8247;SDS011;4164;49.844;8.830;2023-04-24T09:23:32;3.30;;;2.77;;
8247;SDS011;4164;49.844;8.830;2023-04-24T09:25:58;3.80;;;2.57;;
8247;SDS011;4164;49.844;8.830;2023-04-24T09:28:26;5.17;;;2.80;;
8247;SDS011;4164;49.844;8.830;2023-04-24T09:31:01;3.60;;;2.50;;
8247;SDS011;4164;49.844;8.830;2023-04-24T09:33:27;2.90;;;2.50;;
8247;SDS011;4164;49.844;8.830;2023-04-24T09:35:53;3.43;;;2.50;;
8247;SDS011;4164;49.844;8.830;2023-04-24T09:38:19;4.10;;;3.00;;
8247;SDS011;4164;49.844;8.830;2023-04-24T09:40:58;2.87;;;2.57;;
8247;SDS011;4164;49.844;8.830;2023-04-24T09:43:26;4.77;;;3.00;;
8247;SDS011;4164;49.844;8.830;2023-04-24T09:45:52;5.60;;;2.80;;
8247;SDS011;4164;49.844;8.830;2023-04-24T09:48:29;2.97;;;2.67;;
8247;SDS011;4164;49.844;8.830;2023-04-24T09:50:56;4.17;;;2.83;;
8247;SDS011;4164;49.844;8.830;2023-04-24T09:53:23;4.97;;;2.73;;
8247;SDS011;4164;49.844;8.830;2023-04-24T09:55:50;2.97;;;2.60;;
8247;SDS011;4164;49.844;8.830;2023-04-24T09:58:18;2.77;;;2.53;;
8247;SDS011;4164;49.844;8.830;2023-04-24T10:00:49;3.10;;;2.80;;
8247;SDS011;4164;49.844;8.830;2023-04-24T10:03:18;4.00;;;2.87;;
8247;SDS011;4164;49.844;8.830;2023-04-24T10:05:44;3.43;;;3.10;;
8247;SDS011;4164;49.844;8.830;2023-04-24T10:08:12;3.60;;;2.90;;
8247;SDS011;4164;49.844;8.830;2023-04-24T10:10:39;4.03;;;2.60;;
8247;SDS011;4164;49.844;8.830;2023-04-24T10:13:09;4.53;;;3.23;;
8247;SDS011;4164;49.844;8.830;2023-04-24T10:15:36;3.40;;;3.10;;
8247;SDS011;4164;49.844;8.830;2023-04-24T10:18:02;3.33;;;2.97;;
8247;SDS011;4164;49.844;8.830;2023-04-24T10:20:30;4.70;;;3.27;;
8247;SDS011;4164;49.844;8.830;2023-04-24T10:22:56;2.40;;;2.20;;
8247;SDS011;4164;49.844;8.830;2023-04-24T10:25:24;5.83;;;3.07;;
8247;SDS011;4164;49.844;8.830;2023-04-24T10:27:51;3.20;;;2.87;;
8247;SDS011;4164;49.844;8.830;2023-04-24T10:30:18;4.83;;;2.87;;
8247;SDS011;4164;49.844;8.830;2023-04-24T10:32:47;4.00;;;2.80;;
8247;SDS011;4164;49.844;8.830;2023-04-24T10:35:13;2.90;;;2.43;;
8247;SDS011;4164;49.844;8.830;2023-04-24T10:37:50;5.20;;;2.47;;
8247;SDS011;4164;49.844;8.830;2023-04-24T10:40:25;4.73;;;2.40;;
8247;SDS011;4164;49.844;8.830;2023-04-24T10:42:53;2.87;;;2.47;;
8247;SDS011;4164;49.844;8.830;2023-04-24T10:45:19;2.60;;;2.40;;
8247;SDS011;4164;49.844;8.830;2023-04-24T10:47:53;3.13;;;2.47;;
8247;SDS011;4164;49.844;8.830;2023-04-24T10:50:22;2.70;;;2.50;;
8247;SDS011;4164;49.844;8.830;2023-04-24T10:52:48;5.53;;;2.50;;
8247;SDS011;4164;49.844;8.830;2023-04-24T10:58:14;3.83;;;2.80;;
8247;SDS011;4164;49.844;8.830;2023-04-24T11:00:41;3.10;;;2.37;;
8247;SDS011;4164;49.844;8.830;2023-04-24T11:03:22;2.73;;;2.47;;
8247;SDS011;4164;49.844;8.830;2023-04-24T11:08:22;7.20;;;3.17;;
8247;SDS011;4164;49.844;8.830;2023-04-24T11:10:56;3.67;;;2.50;;
8247;SDS011;4164;49.844;8.830;2023-04-24T11:16:20;10.20;;;2.70;;
8247;SDS011;4164;49.844;8.830;2023-04-24T11:18:51;3.63;;;2.70;;
8247;SDS011;4164;49.844;8.830;2023-04-24T11:21:24;3.73;;;2.60;;
8247;SDS011;4164;49.844;8.830;2023-04-24T11:23:51;4.53;;;3.10;;
8247;SDS011;4164;49.844;8.830;2023-04-24T11:26:21;2.70;;;2.50;;
8247;SDS011;4164;49.844;8.830;2023-04-24T11:28:50;2.77;;;2.37;;
8247;SDS011;4164;49.844;8.830;2023-04-24T11:31:37;6.27;;;2.50;;
8247;SDS011;4164;49.844;8.830;2023-04-24T11:34:08;3.67;;;2.50;;
8247;SDS011;4164;49.844;8.830;2023-04-24T11:36:34;3.03;;;2.67;;
8247;SDS011;4164;49.844;8.830;2023-04-24T11:39:00;7.50;;;2.70;;
8247;SDS011;4164;49.844;8.830;2023-04-24T11:41:27;2.80;;;2.60;;
8247;SDS011;4164;49.844;8.830;2023-04-24T11:43:53;3.33;;;3.03;;
8247;SDS011;4164;49.844;8.830;2023-04-24T11:46:23;3.17;;;2.87;;
8247;SDS011;4164;49.844;8.830;2023-04-24T11:48:55;3.13;;;2.83;;
8247;SDS011;4164;49.844;8.830;2023-04-24T11:51:25;3.13;;;2.50;;
8247;SDS011;4164;49.844;8.830;2023-04-24T11:53:52;6.10;;;2.87;;
8247;SDS011;4164;49.844;8.830;2023-04-24T11:56:19;5.00;;;3.00;;
8247;SDS011;4164;49.844;8.830;2023-04-24T11:58:46;5.43;;;3.43;;
8247;SDS011;4164;49.844;8.830;2023-04-24T12:01:12;4.50;;;2.97;;
8247;SDS011;4164;49.844;8.830;2023-04-24T12:03:37;2.97;;;2.77;;
8247;SDS011;4164;49.844;8.830;2023-04-24T12:06:10;4.23;;;3.03;;
8247;SDS011;4164;49.844;8.830;2023-04-24T12:08:36;3.03;;;2.77;;
8247;SDS011;4164;49.844;8.830;2023-04-24T12:11:03;3.73;;;2.90;;
8247;SDS011;4164;49.844;8.830;2023-04-24T12:13:30;3.73;;;3.30;;
8247;SDS011;4164;49.844;8.830;2023-04-24T12:15:56;5.13;;;3.47;;
8247;SDS011;4164;49.844;8.830;2023-04-24T12:18:23;6.00;;;3.53;;
8247;SDS011;4164;49.844;8.830;2023-04-24T12:20:49;5.97;;;4.37;;
8247;SDS011;4164;49.844;8.830;2023-04-24T12:23:14;7.10;;;4.73;;
8247;SDS011;4164;49.844;8.830;2023-04-24T12:25:40;4.50;;;4.10;;
8247;SDS011;4164;49.844;8.830;2023-04-24T12:30:39;7.67;;;3.93;;
8247;SDS011;4164;49.844;8.830;2023-04-24T12:33:06;3.57;;;3.27;;
8247;SDS011;4164;49.844;8.830;2023-04-24T12:35:32;3.30;;;2.90;;
8247;SDS011;4164;49.844;8.830;2023-04-24T12:38:15;3.30;;;2.73;;
8247;SDS011;4164;49.844;8.830;2023-04-24T12:40:43;4.50;;;2.70;;
8247;SDS011;4164;49.844;8.830;2023-04-24T12:43:18;2.60;;;2.37;;
8247;SDS011;4164;49.844;8.830;2023-04-24T12:45:45;3.07;;;2.57;;
8247;SDS011;4164;49.844;8.830;2023-04-24T12:48:13;2.80;;;2.60;;
8247;SDS011;4164;49.844;8.830;2023-04-24T12:50:39;3.47;;;3.00;;
8247;SDS011;4164;49.844;8.830;2023-04-24T12:53:05;2.83;;;2.63;;
8247;SDS011;4164;49.844;8.830;2023-04-24T12:55:32;5.90;;;3.13;;
8247;SDS011;4164;49.844;8.830;2023-04-24T12:57:58;5.13;;;3.00;;
8247;SDS011;4164;49.844;8.830;2023-04-24T13:00:24;3.43;;;2.90;;
8247;SDS011;4164;49.844;8.830;2023-04-24T13:02:49;5.47;;;3.23;;
8247;SDS011;4164;49.844;8.830;2023-04-24T13:05:15;3.17;;;2.87;;
8247;SDS011;4164;49.844;8.830;2023-04-24T13:07:40;6.03;;;3.10;;
8247;SDS011;4164;49.844;8.830;2023-04-24T13:10:06;4.13;;;3.30;;
8247;SDS011;4164;49.844;8.830;2023-04-24T13:12:32;3.93;;;2.90;;
8247;SDS011;4164;49.844;8.830;2023-04-24T13:14:58;4.33;;;2.83;;
8247;SDS011;4164;49.844;8.830;2023-04-24T13:17:23;3.40;;;3.10;;
8247;SDS011;4164;49.844;8.830;2023-04-24T13:19:50;4.73;;;3.57;;
8247;SDS011;4164;49.844;8.830;2023-04-24T13:22:16;5.57;;;3.63;;
8247;SDS011;4164;49.844;8.830;2023-04-24T13:24:44;4.27;;;3.10;;
8247;SDS011;4164;49.844;8.830;2023-04-24T13:27:09;4.83;;;3.27;;
8247;SDS011;4164;49.844;8.830;2023-04-24T13:29:35;4.40;;;3.53;;
8247;SDS011;4164;49.844;8.830;2023-04-24T13:32:01;6.03;;;3.40;;
8247;SDS011;4164;49.844;8.830;2023-04-24T13:34:27;4.00;;;2.97;;
8247;SDS011;4164;49.844;8.830;2023-04-24T13:36:53;3.77;;;3.00;;
8247;SDS011;4164;49.844;8.830;2023-04-24T13:39:21;6.50;;;3.20;;
8247;SDS011;4164;49.844;8.830;2023-04-24T13:41:47;5.53;;;3.60;;
8247;SDS011;4164;49.844;8.830;2023-04-24T13:44:14;6.10;;;4.03;;
8247;SDS011;4164;49.844;8.830;2023-04-24T13:46:40;5.50;;;3.37;;
8247;SDS011;4164;49.844;8.830;2023-04-24T13:49:06;3.53;;;3.10;;
8247;SDS011;4164;49.844;8.830;2023-04-24T13:51:32;8.57;;;3.80;;
8247;SDS011;4164;49.844;8.830;2023-04-24T13:53:57;3.57;;;3.07;;
8247;SDS011;4164;49.844;8.830;2023-04-24T13:56:24;3.93;;;2.70;;
8247;SDS011;4164;49.844;8.830;2023-04-24T13:58:50;5.03;;;2.80;;
8247;SDS011;4164;49.844;8.830;2023-04-24T14:01:16;3.47;;;3.00;;
8247;SDS011;4164;49.844;8.830;2023-04-24T14:03:42;6.93;;;3.10;;
8247;SDS011;4164;49.844;8.830;2023-04-24T14:06:10;4.10;;;3.00;;
8247;SDS011;4164;49.844;8.830;2023-04-24T14:08:36;4.90;;;3.33;;
8247;SDS011;4164;49.844;8.830;2023-04-24T14:11:02;5.93;;;2.90;;
8247;SDS011;4164;49.844;8.830;2023-04-24T14:13:27;9.27;;;3.50;;
8247;SDS011;4164;49.844;8.830;2023-04-24T14:15:53;7.30;;;4.20;;
8247;SDS011;4164;49.844;8.830;2023-04-24T14:18:19;4.90;;;3.30;;
8247;SDS011;4164;49.844;8.830;2023-04-24T14:20:45;3.93;;;2.83;;
8247;SDS011;4164;49.844;8.830;2023-04-24T14:23:10;3.77;;;2.90;;
8247;SDS011;4164;49.844;8.830;2023-04-24T14:25:36;3.63;;;3.33;;
8247;SDS011;4164;49.844;8.830;2023-04-24T14:28:02;3.47;;;3.10;;
8247;SDS011;4164;49.844;8.830;2023-04-24T14:30:27;3.33;;;2.93;;
8247;SDS011;4164;49.844;8.830;2023-04-24T14:32:53;4.30;;;3.33;;
8247;SDS011;4164;49.844;8.830;2023-04-24T14:35:19;5.70;;;3.03;;
8247;SDS011;4164;49.844;8.830;2023-04-24T14:37:47;3.27;;;2.97;;
8247;SDS011;4164;49.844;8.830;2023-04-24T14:40:14;4.80;;;3.57;;
8247;SDS011;4164;49.844;8.830;2023-04-24T14:42:39;5.77;;;3.67;;
8247;SDS011;4164;49.844;8.830;2023-04-24T14:45:05;7.70;;;3.23;;
8247;SDS011;4164;49.844;8.830;2023-04-24T14:47:31;7.60;;;3.40;;
8247;SDS011;4164;49.844;8.830;2023-04-24T14:49:57;4.13;;;3.43;;
8247;SDS011;4164;49.844;8.830;2023-04-24T14:52:23;6.03;;;3.83;;
8247;SDS011;4164;49.844;8.830;2023-04-24T14:54:49;8.00;;;3.80;;
8247;SDS011;4164;49.844;8.830;2023-04-24T14:57:14;9.60;;;3.80;;
8247;SDS011;4164;49.844;8.830;2023-04-24T14:59:40;5.17;;;3.10;;
8247;SDS011;4164;49.844;8.830;2023-04-24T15:02:06;3.83;;;2.73;;
8247;SDS011;4164;49.844;8.830;2023-04-24T15:04:31;6.40;;;4.23;;
8247;SDS011;4164;49.844;8.830;2023-04-24T15:06:57;4.07;;;3.30;;
8247;SDS011;4164;49.844;8.830;2023-04-24T15:09:23;4.37;;;2.90;;
8247;SDS011;4164;49.844;8.830;2023-04-24T15:11:49;6.40;;;3.33;;
8247;SDS011;4164;49.844;8.830;2023-04-24T15:14:16;5.93;;;3.40;;
8247;SDS011;4164;49.844;8.830;2023-04-24T15:16:42;3.20;;;2.90;;
8247;SDS011;4164;49.844;8.830;2023-04-24T15:19:08;3.20;;;2.87;;
8247;SDS011;4164;49.844;8.830;2023-04-24T15:21:35;5.93;;;3.53;;